createdAt,value
2022-08-23T00:01:27.936Z,28.13
2022-08-23T00:06:27.232Z,31.13
2022-08-23T00:08:54.299Z,28.77
2022-08-23T00:11:28.089Z,28.35
2022-08-23T00:13:55.513Z,29.67
2022-08-23T00:16:22.941Z,33.03
2022-08-23T00:18:50.200Z,30.23
2022-08-23T00:21:17.308Z,33.97
2022-08-23T00:23:44.170Z,29.98
2022-08-23T00:26:11.189Z,32.08
2022-08-23T00:28:38.114Z,30.42
2022-08-23T00:31:05.470Z,36.22
2022-08-23T00:33:32.580Z,35.53
2022-08-23T00:35:59.407Z,32.65
2022-08-23T00:38:31.785Z,31.52
2022-08-23T00:41:02.517Z,30.73
2022-08-23T00:43:56.293Z,30.20
2022-08-23T00:46:44.717Z,28.00
2022-08-23T00:49:12.921Z,31.15
2022-08-23T00:51:53.086Z,28.40
2022-08-23T00:54:22.348Z,29.17
2022-08-23T00:56:50.165Z,31.15
2022-08-23T00:59:17.300Z,32.85
2022-08-23T01:01:44.258Z,28.50
2022-08-23T01:04:12.373Z,29.92
2022-08-23T01:06:53.939Z,32.58
2022-08-23T01:09:22.300Z,29.55
2022-08-23T01:11:51.801Z,33.88
2022-08-23T01:14:31.288Z,26.70
2022-08-23T01:17:24.775Z,30.33
2022-08-23T01:20:00.563Z,30.63
2022-08-23T01:22:35.231Z,29.77
2022-08-23T01:25:08.954Z,29.35
2022-08-23T01:27:38.782Z,33.05
2022-08-23T01:30:08.083Z,33.15
2022-08-23T01:32:41.898Z,29.35
2022-08-23T01:35:09.272Z,30.80
2022-08-23T01:37:36.448Z,36.40
2022-08-23T01:40:05.018Z,33.28
2022-08-23T01:42:31.953Z,34.25
2022-08-23T01:44:58.764Z,32.30
2022-08-23T01:47:25.570Z,30.90
2022-08-23T01:49:52.368Z,32.55
2022-08-23T01:52:19.611Z,31.00
2022-08-23T01:54:46.792Z,31.35
2022-08-23T01:57:13.840Z,32.72
2022-08-23T01:59:42.671Z,31.40
2022-08-23T02:02:09.509Z,30.27
2022-08-23T02:04:36.340Z,32.03
2022-08-23T02:07:03.170Z,33.35
2022-08-23T02:09:32.062Z,31.10
2022-08-23T02:11:59.687Z,33.00
2022-08-23T02:14:26.518Z,32.00
2022-08-23T02:17:02.910Z,28.67
2022-08-23T02:19:32.561Z,34.97
2022-08-23T02:21:59.368Z,29.88
2022-08-23T02:24:26.488Z,35.53
2022-08-23T02:26:57.028Z,34.58
2022-08-23T02:29:25.629Z,31.10
2022-08-23T02:31:52.738Z,41.47
2022-08-23T02:34:20.653Z,37.10
2022-08-23T02:36:48.346Z,32.80
2022-08-23T02:39:19.396Z,30.30
2022-08-23T02:41:46.394Z,31.30
2022-08-23T02:44:14.153Z,35.85
2022-08-23T02:46:41.672Z,33.10
2022-08-23T02:49:08.830Z,32.42
2022-08-23T02:51:35.846Z,33.90
2022-08-23T02:54:02.878Z,33.75
2022-08-23T02:56:29.722Z,31.88
2022-08-23T02:58:56.507Z,34.53
2022-08-23T03:01:27.418Z,32.63
2022-08-23T03:03:54.366Z,32.33
2022-08-23T03:06:25.034Z,30.48
2022-08-23T03:11:22.488Z,36.45
2022-08-23T03:13:50.726Z,32.45
2022-08-23T03:16:19.080Z,31.23
2022-08-23T03:18:46.900Z,33.20
2022-08-23T03:21:17.244Z,39.47
2022-08-23T03:23:44.202Z,43.53
2022-08-23T03:26:13.569Z,40.00
2022-08-23T03:28:42.216Z,35.50
2022-08-23T03:31:09.829Z,36.92
2022-08-23T03:33:37.335Z,35.58
2022-08-23T03:36:07.512Z,39.58
2022-08-23T03:38:34.921Z,39.40
2022-08-23T03:41:02.120Z,38.30
2022-08-23T03:43:29.163Z,34.03
2022-08-23T03:45:56.195Z,36.45
2022-08-23T03:48:23.338Z,35.58
2022-08-23T03:50:50.149Z,37.65
2022-08-23T03:53:24.168Z,34.65
2022-08-23T03:55:53.685Z,31.50
2022-08-23T03:58:21.789Z,38.15
2022-08-23T04:00:49.209Z,42.20
2022-08-23T04:03:16.419Z,33.00
2022-08-23T04:05:43.629Z,34.75
2022-08-23T04:08:11.710Z,36.67
2022-08-23T04:10:39.283Z,36.63
2022-08-23T04:13:09.392Z,33.20
2022-08-23T04:15:37.341Z,39.40
2022-08-23T04:18:05.085Z,34.90
2022-08-23T04:20:33.256Z,35.00
2022-08-23T04:23:00.186Z,34.47
2022-08-23T04:25:34.816Z,30.98
2022-08-23T04:28:02.904Z,33.05
2022-08-23T04:30:30.358Z,36.55
2022-08-23T04:32:57.429Z,29.60
2022-08-23T04:35:25.567Z,33.50
2022-08-23T04:37:53.560Z,36.88
2022-08-23T04:40:39.057Z,35.42
2022-08-23T04:43:07.044Z,31.23
2022-08-23T04:45:33.825Z,27.13
2022-08-23T04:48:00.807Z,31.40
2022-08-23T04:50:27.736Z,30.67
2022-08-23T04:52:54.569Z,33.00
2022-08-23T04:55:22.201Z,31.52
2022-08-23T04:57:49.090Z,34.75
2022-08-23T05:00:17.003Z,30.50
2022-08-23T05:02:43.921Z,29.73
2022-08-23T05:05:11.425Z,33.10
2022-08-23T05:07:42.839Z,30.70
2022-08-23T05:10:13.342Z,31.30
2022-08-23T05:12:40.913Z,28.58
2022-08-23T05:15:09.639Z,28.20
2022-08-23T05:17:37.091Z,32.42
2022-08-23T05:20:06.580Z,30.73
2022-08-23T05:22:34.413Z,33.28
2022-08-23T05:25:01.208Z,32.38
2022-08-23T05:27:28.235Z,31.73
2022-08-23T05:29:55.022Z,30.70
2022-08-23T05:32:22.900Z,25.40
2022-08-23T05:34:49.839Z,31.45
2022-08-23T05:37:17.870Z,29.95
2022-08-23T05:39:44.721Z,27.60
2022-08-23T05:42:16.153Z,29.10
2022-08-23T05:44:45.237Z,28.58
2022-08-23T05:47:15.505Z,30.30
2022-08-23T05:49:43.156Z,28.98
2022-08-23T05:52:14.987Z,33.72
2022-08-23T05:57:10.574Z,32.22
2022-08-23T05:59:37.547Z,34.42
2022-08-23T06:02:04.630Z,29.90
2022-08-23T06:04:31.588Z,36.85
2022-08-23T06:06:59.035Z,26.02
2022-08-23T06:09:26.417Z,32.58
2022-08-23T06:11:53.405Z,31.85
2022-08-23T06:14:20.348Z,32.40
2022-08-23T06:16:52.574Z,25.77
2022-08-23T06:19:21.946Z,25.15
2022-08-23T06:21:49.606Z,28.95
2022-08-23T06:24:16.506Z,28.33
2022-08-23T06:26:45.373Z,29.98
2022-08-23T06:29:16.384Z,29.80
2022-08-23T06:31:49.303Z,30.65
2022-08-23T06:34:18.610Z,31.15
2022-08-23T06:36:51.525Z,28.15
2022-08-23T06:39:20.813Z,30.95
2022-08-23T06:41:50.358Z,31.38
2022-08-23T06:44:19.018Z,29.52
2022-08-23T06:46:48.752Z,28.02
2022-08-23T06:49:16.246Z,27.45
2022-08-23T06:51:46.293Z,30.20
2022-08-23T06:54:14.909Z,27.20
2022-08-23T06:56:43.630Z,29.30
2022-08-23T06:59:12.228Z,31.35
2022-08-23T07:01:46.939Z,29.25
2022-08-23T07:04:18.217Z,28.90
2022-08-23T07:06:45.966Z,30.70
2022-08-23T07:09:13.561Z,28.65
2022-08-23T07:11:41.236Z,25.55
2022-08-23T07:14:12.061Z,33.20
2022-08-23T07:16:41.946Z,27.20
2022-08-23T07:19:09.282Z,27.58
2022-08-23T07:21:37.325Z,29.35
2022-08-23T07:24:05.156Z,30.73
2022-08-23T07:26:32.735Z,33.00
2022-08-23T07:28:59.517Z,28.58
2022-08-23T07:31:30.774Z,31.30
2022-08-23T07:34:03.613Z,27.40
2022-08-23T07:36:32.976Z,25.45
2022-08-23T07:39:00.962Z,29.35
2022-08-23T07:41:32.832Z,27.50
2022-08-23T07:44:02.769Z,29.95
2022-08-23T07:46:31.314Z,31.13
2022-08-23T07:49:00.297Z,30.40
2022-08-23T07:51:29.575Z,32.75
2022-08-23T07:53:56.569Z,28.27
2022-08-23T07:56:23.657Z,28.95
2022-08-23T07:58:50.445Z,24.85
2022-08-23T08:01:24.650Z,26.95
2022-08-23T08:03:54.311Z,32.38
2022-08-23T08:06:26.007Z,28.67
2022-08-23T08:08:53.353Z,27.08
2022-08-23T08:11:24.265Z,21.23
2022-08-23T08:13:51.822Z,25.25
2022-08-23T08:16:31.242Z,24.55
2022-08-23T08:19:00.253Z,29.55
2022-08-23T08:21:28.824Z,28.55
2022-08-23T08:23:57.560Z,26.58
2022-08-23T08:26:26.019Z,29.50
2022-08-23T08:28:54.697Z,27.05
2022-08-23T08:31:21.849Z,24.10
2022-08-23T08:33:48.919Z,27.25
2022-08-23T08:36:35.333Z,37.72
2022-08-23T08:39:06.613Z,27.67
2022-08-23T08:41:39.039Z,39.30
2022-08-23T08:44:16.323Z,25.30
2022-08-23T08:46:50.234Z,32.35
2022-08-23T08:49:33.286Z,25.40
2022-08-23T08:52:08.646Z,23.00
2022-08-23T08:54:37.695Z,24.10
2022-08-23T08:57:07.882Z,24.80
2022-08-23T08:59:59.446Z,25.38
2022-08-23T09:02:32.603Z,23.25
2022-08-23T09:05:09.702Z,22.90
2022-08-23T09:07:46.079Z,21.17
2022-08-23T09:10:52.216Z,22.40
2022-08-23T09:13:55.702Z,22.80
2022-08-23T09:16:44.025Z,21.98
2022-08-23T09:19:11.229Z,21.50
2022-08-23T09:21:54.298Z,23.30
2022-08-23T09:24:21.245Z,23.05
2022-08-23T09:26:48.184Z,22.88
2022-08-23T09:29:18.808Z,21.85
2022-08-23T09:31:58.560Z,26.13
2022-08-23T09:34:31.161Z,23.70
2022-08-23T09:37:25.239Z,29.42
2022-08-23T09:40:13.505Z,23.60
2022-08-23T09:42:41.394Z,29.65
2022-08-23T09:45:35.453Z,27.13
2022-08-23T09:48:03.820Z,27.60
2022-08-23T09:50:42.293Z,23.80
2022-08-23T09:53:14.442Z,26.88
2022-08-23T09:55:54.446Z,23.30
2022-08-23T09:58:32.098Z,22.52
2022-08-23T10:01:19.179Z,20.17
2022-08-23T10:03:46.496Z,23.13
2022-08-23T10:06:31.054Z,20.10
2022-08-23T10:09:02.258Z,21.55
2022-08-23T10:11:32.599Z,21.60
2022-08-23T10:13:59.419Z,19.25
2022-08-23T10:16:40.063Z,19.55
2022-08-23T10:19:26.024Z,21.10
2022-08-23T10:22:18.258Z,25.33
2022-08-23T10:24:55.482Z,25.20
2022-08-23T10:27:59.760Z,21.75
2022-08-23T10:30:47.890Z,20.30
2022-08-23T10:33:35.112Z,16.90
2022-08-23T10:36:22.950Z,18.92
2022-08-23T10:38:57.636Z,18.38
2022-08-23T10:41:39.701Z,16.23
2022-08-23T10:44:54.207Z,17.20
2022-08-23T10:48:16.237Z,18.10
2022-08-23T10:51:22.690Z,20.67
2022-08-23T10:54:07.874Z,19.00
2022-08-23T10:56:36.461Z,18.73
2022-08-23T10:59:21.377Z,15.13
2022-08-23T11:01:53.793Z,20.88
2022-08-23T11:04:29.749Z,19.50
2022-08-23T11:06:59.259Z,16.75
2022-08-23T11:09:26.052Z,16.83
2022-08-23T11:12:11.412Z,18.40
2022-08-23T11:14:39.830Z,18.80
2022-08-23T11:17:23.596Z,17.33
2022-08-23T11:19:53.264Z,22.08
2022-08-23T11:22:23.888Z,16.20
2022-08-23T11:24:55.766Z,16.15
2022-08-23T11:27:28.701Z,19.27
2022-08-23T11:29:55.808Z,22.95
2022-08-23T11:32:42.998Z,15.63
2022-08-23T11:35:28.609Z,14.80
2022-08-23T11:38:05.920Z,17.98
2022-08-23T11:40:50.778Z,14.35
2022-08-23T11:43:29.809Z,17.27
2022-08-23T11:46:35.245Z,15.90
2022-08-23T11:49:20.586Z,16.50
2022-08-23T11:51:55.981Z,17.35
2022-08-23T11:54:56.189Z,17.08
2022-08-23T11:57:44.816Z,17.88
2022-08-23T12:00:55.780Z,18.23
2022-08-23T12:03:32.590Z,15.93
2022-08-23T12:06:08.440Z,16.52
2022-08-23T12:08:41.329Z,17.45
2022-08-23T12:11:10.662Z,16.60
2022-08-23T12:13:49.651Z,18.77
2022-08-23T12:16:17.720Z,20.38
2022-08-23T12:18:53.358Z,22.35
2022-08-23T12:21:43.087Z,18.60
2022-08-23T12:24:22.188Z,17.13
2022-08-23T12:27:24.141Z,18.30
2022-08-23T12:29:58.203Z,17.02
2022-08-23T12:33:04.858Z,17.20
2022-08-23T12:35:53.346Z,20.40
2022-08-23T12:38:58.470Z,15.25
2022-08-23T12:41:48.686Z,14.85
2022-08-23T12:44:19.358Z,19.27
2022-08-23T12:46:49.205Z,20.30
2022-08-23T12:49:29.476Z,16.38
2022-08-23T12:52:00.956Z,17.10
2022-08-23T12:54:43.651Z,18.45
2022-08-23T12:57:33.129Z,15.07
2022-08-23T13:00:18.467Z,18.25
2022-08-23T13:03:13.005Z,17.98
2022-08-23T13:05:45.985Z,18.05
2022-08-23T13:08:27.349Z,18.27
2022-08-23T13:11:07.674Z,16.27
2022-08-23T13:13:37.053Z,17.15
2022-08-23T13:16:26.871Z,18.83
2022-08-23T13:18:56.131Z,17.17
2022-08-23T13:21:23.033Z,20.10
2022-08-23T13:23:56.270Z,17.27
2022-08-23T13:26:43.736Z,18.17
2022-08-23T13:29:24.311Z,17.20
2022-08-23T13:32:03.445Z,18.20
2022-08-23T13:34:47.126Z,14.53
2022-08-23T13:37:21.305Z,17.50
2022-08-23T13:40:05.598Z,17.75
2022-08-23T13:43:01.294Z,16.92
2022-08-23T13:45:32.154Z,17.30
2022-08-23T13:50:39.130Z,19.30
2022-08-23T13:53:15.674Z,19.95
2022-08-23T13:55:48.988Z,14.60
2022-08-23T13:58:31.084Z,15.50
2022-08-23T14:01:00.616Z,16.80
2022-08-23T14:03:29.199Z,15.55
2022-08-23T14:05:56.163Z,18.13
2022-08-23T14:08:23.583Z,16.27
2022-08-23T14:10:54.401Z,17.23
2022-08-23T14:13:28.291Z,15.63
2022-08-23T14:21:35.245Z,19.88
2022-08-23T14:24:02.281Z,20.10
2022-08-23T14:26:29.520Z,21.73
2022-08-23T14:28:56.476Z,21.63
2022-08-23T14:31:23.995Z,19.75
2022-08-23T14:33:50.853Z,16.40
2022-08-23T14:36:17.885Z,17.70
2022-08-23T14:38:44.693Z,21.50
2022-08-23T14:41:21.092Z,19.25
2022-08-23T14:43:52.845Z,19.77
2022-08-23T14:46:21.890Z,20.88
2022-08-23T14:48:48.782Z,18.67
2022-08-23T14:51:30.573Z,21.77
2022-08-23T14:53:57.368Z,23.52
2022-08-23T14:56:24.321Z,21.17
2022-08-23T14:58:53.222Z,22.50
2022-08-23T15:01:20.909Z,21.77
2022-08-23T15:03:49.449Z,20.58
2022-08-23T15:06:18.261Z,21.20
2022-08-23T15:08:45.672Z,19.52
2022-08-23T15:14:02.681Z,23.20
2022-08-23T15:16:30.033Z,22.55
2022-08-23T15:18:57.869Z,24.20
2022-08-23T15:21:24.755Z,21.75
2022-08-23T15:23:51.610Z,22.42
2022-08-23T15:26:24.530Z,26.50
2022-08-23T15:28:51.500Z,22.20
2022-08-23T15:31:19.901Z,20.65
2022-08-23T15:33:46.967Z,20.17
2022-08-23T15:36:16.066Z,19.08
2022-08-23T15:38:47.905Z,23.45
2022-08-23T15:41:16.585Z,23.48
2022-08-23T15:43:44.507Z,21.83
2022-08-23T15:46:22.825Z,22.85
2022-08-23T15:49:04.365Z,23.50
2022-08-23T15:51:32.126Z,18.40
2022-08-23T15:53:58.981Z,23.70
2022-08-23T15:56:34.016Z,23.05
2022-08-23T15:59:01.343Z,21.88
2022-08-23T16:01:33.588Z,19.77
2022-08-23T16:04:02.180Z,21.58
2022-08-23T16:06:32.206Z,24.40
2022-08-23T16:09:04.411Z,19.65
2022-08-23T16:11:31.894Z,22.13
2022-08-23T16:13:58.906Z,28.92
2022-08-23T16:16:31.071Z,22.77
2022-08-23T16:18:59.785Z,22.80
2022-08-23T16:21:29.413Z,19.98
2022-08-23T16:23:57.500Z,23.85
2022-08-23T16:26:34.763Z,24.52
2022-08-23T16:29:06.217Z,23.95
2022-08-23T16:31:39.144Z,25.98
2022-08-23T16:34:09.602Z,26.75
2022-08-23T16:36:37.048Z,28.40
2022-08-23T16:39:05.411Z,26.02
2022-08-23T16:41:32.448Z,31.38
2022-08-23T16:43:59.485Z,31.65
2022-08-23T16:46:27.433Z,36.55
2022-08-23T16:48:54.412Z,36.58
2022-08-23T16:51:22.268Z,39.55
2022-08-23T16:54:01.618Z,47.38
2022-08-23T16:56:34.155Z,52.95
2022-08-23T16:59:01.507Z,59.67
2022-08-23T17:01:29.847Z,62.72
2022-08-23T17:03:56.848Z,62.20
2022-08-23T17:06:23.657Z,58.50
2022-08-23T17:08:50.519Z,63.90
2022-08-23T17:11:19.640Z,68.90
2022-08-23T17:13:46.678Z,67.90
2022-08-23T17:16:13.663Z,72.80
2022-08-23T17:18:40.645Z,70.38
2022-08-23T17:21:09.133Z,71.55
2022-08-23T17:23:39.282Z,63.55
2022-08-23T17:26:09.573Z,66.55
2022-08-23T17:28:36.630Z,63.25
2022-08-23T17:31:03.980Z,66.78
2022-08-23T17:33:30.875Z,64.30
2022-08-23T17:35:57.937Z,63.55
2022-08-23T17:38:24.745Z,54.72
2022-08-23T17:40:52.331Z,55.78
2022-08-23T17:43:19.245Z,46.05
2022-08-23T17:45:48.792Z,44.17
2022-08-23T17:48:17.719Z,42.70
2022-08-23T17:50:46.179Z,44.00
2022-08-23T17:53:15.156Z,46.47
2022-08-23T17:55:43.015Z,42.60
2022-08-23T17:58:10.378Z,44.42
2022-08-23T18:00:39.353Z,35.80
2022-08-23T18:03:06.908Z,44.88
2022-08-23T18:05:34.906Z,32.95
2022-08-23T18:08:02.210Z,41.20
2022-08-23T18:10:30.161Z,38.60
2022-08-23T18:12:58.022Z,37.30
2022-08-23T18:15:25.318Z,34.15
2022-08-23T18:17:53.963Z,29.88
2022-08-23T18:20:29.068Z,37.05
2022-08-23T18:22:58.373Z,30.58
2022-08-23T18:25:26.648Z,31.95
2022-08-23T18:28:09.342Z,35.10
2022-08-23T18:30:38.937Z,31.10
2022-08-23T18:33:06.754Z,30.20
2022-08-23T18:35:34.685Z,41.08
2022-08-23T18:38:02.189Z,28.77
2022-08-23T18:40:29.939Z,38.03
2022-08-23T18:42:57.562Z,37.20
2022-08-23T18:45:24.481Z,36.67
2022-08-23T18:47:51.428Z,35.13
2022-08-23T18:50:18.706Z,31.75
2022-08-23T18:52:45.578Z,32.33
2022-08-23T18:55:12.416Z,30.67
2022-08-23T18:57:39.283Z,24.98
2022-08-23T19:00:09.675Z,33.25
2022-08-23T19:02:36.510Z,34.35
2022-08-23T19:05:04.078Z,28.88
2022-08-23T19:07:31.061Z,31.05
2022-08-23T19:09:57.982Z,28.50
2022-08-23T19:12:24.852Z,34.80
2022-08-23T19:14:54.890Z,39.08
2022-08-23T19:17:22.107Z,36.42
2022-08-23T19:19:49.135Z,31.92
2022-08-23T19:22:16.180Z,28.80
2022-08-23T19:24:43.322Z,34.85
2022-08-23T19:27:10.292Z,27.88
2022-08-23T19:29:37.237Z,34.40
2022-08-23T19:32:04.700Z,33.90
2022-08-23T19:34:31.717Z,34.67
2022-08-23T19:37:01.092Z,35.75
2022-08-23T19:39:29.486Z,47.08
2022-08-23T19:41:56.683Z,40.88
2022-08-23T19:44:23.773Z,39.05
2022-08-23T19:46:50.797Z,39.78
2022-08-23T19:49:18.015Z,42.72
2022-08-23T19:51:44.983Z,37.97
2022-08-23T19:54:13.177Z,38.00
2022-08-23T19:56:45.738Z,41.65
2022-08-23T19:59:17.294Z,38.28
2022-08-23T20:01:44.621Z,37.17
2022-08-23T20:04:12.002Z,42.10
2022-08-23T20:06:39.046Z,35.72
2022-08-23T20:09:07.137Z,42.75
2022-08-23T20:11:34.346Z,41.30
2022-08-23T20:14:01.461Z,37.78
2022-08-23T20:16:29.213Z,34.33
2022-08-23T20:18:56.094Z,30.83
2022-08-23T20:21:24.077Z,32.63
2022-08-23T20:24:06.669Z,27.58
2022-08-23T20:26:40.838Z,43.72
2022-08-23T20:29:13.685Z,28.48
2022-08-23T20:31:53.297Z,30.83
2022-08-23T20:34:20.700Z,28.75
2022-08-23T20:36:47.849Z,31.52
2022-08-23T20:39:19.276Z,28.40
2022-08-23T20:41:49.102Z,27.77
2022-08-23T20:44:16.160Z,26.35
2022-08-23T20:46:46.684Z,26.95
2022-08-23T20:49:14.741Z,28.65
2022-08-23T20:51:41.681Z,29.35
2022-08-23T20:54:11.305Z,28.63
2022-08-23T20:56:39.503Z,27.50
2022-08-23T20:59:07.951Z,30.25
2022-08-23T21:01:37.301Z,29.10
2022-08-23T21:04:07.141Z,29.08
2022-08-23T21:06:46.978Z,22.85
2022-08-23T21:09:19.258Z,28.92
2022-08-23T21:14:15.408Z,26.58
2022-08-23T21:16:44.265Z,22.70
2022-08-23T21:19:11.544Z,18.83
2022-08-23T21:21:40.145Z,22.50
2022-08-23T21:24:08.272Z,24.08
2022-08-23T21:26:36.373Z,26.15
2022-08-23T21:29:04.296Z,23.50
2022-08-23T21:31:31.738Z,20.70
2022-08-23T21:34:00.537Z,23.65
2022-08-23T21:36:28.101Z,18.63
2022-08-23T21:38:54.918Z,22.85
2022-08-23T21:41:29.915Z,22.90
2022-08-23T21:43:56.833Z,22.75
2022-08-23T21:46:23.833Z,26.10
2022-08-23T21:48:50.721Z,24.63
2022-08-23T21:51:17.668Z,23.80
2022-08-23T21:53:44.589Z,20.05
2022-08-23T21:56:11.385Z,20.77
2022-08-23T21:58:38.250Z,20.90
2022-08-23T22:01:05.309Z,21.20
2022-08-23T22:03:32.708Z,30.20
2022-08-23T22:05:59.574Z,22.08
2022-08-23T22:08:26.361Z,24.00
2022-08-23T22:10:57.919Z,23.10
2022-08-23T22:13:28.846Z,20.50
2022-08-23T22:15:56.300Z,25.73
2022-08-23T22:18:23.382Z,21.60
2022-08-23T22:20:50.307Z,23.20
2022-08-23T22:23:17.408Z,18.13
2022-08-23T22:25:44.328Z,20.08
2022-08-23T22:28:11.226Z,18.85
2022-08-23T22:30:38.138Z,22.20
2022-08-23T22:33:05.124Z,24.65
2022-08-23T22:35:36.303Z,21.58
2022-08-23T22:38:13.819Z,18.05
2022-08-23T22:40:51.261Z,17.88
2022-08-23T22:43:19.341Z,20.13
2022-08-23T22:46:01.417Z,21.10
2022-08-23T22:48:31.575Z,21.50
2022-08-23T22:51:09.652Z,20.88
2022-08-23T22:53:39.284Z,19.92
2022-08-23T22:56:07.173Z,18.42
2022-08-23T22:58:34.668Z,23.58
2022-08-23T23:01:03.749Z,19.58
2022-08-23T23:03:36.740Z,21.13
2022-08-23T23:06:06.594Z,18.08
2022-08-23T23:08:33.486Z,18.88
2022-08-23T23:11:06.263Z,17.35
2022-08-23T23:13:34.483Z,20.08
2022-08-23T23:16:06.815Z,17.10
2022-08-23T23:18:34.418Z,17.80
2022-08-23T23:21:04.165Z,16.65
2022-08-23T23:23:32.798Z,16.50
2022-08-23T23:25:59.879Z,17.10
2022-08-23T23:28:27.569Z,19.27
2022-08-23T23:30:55.675Z,17.98
2022-08-23T23:33:23.322Z,17.60
2022-08-23T23:35:51.828Z,18.42
2022-08-23T23:38:18.930Z,18.65
2022-08-23T23:40:46.001Z,16.17
2022-08-23T23:43:13.357Z,24.35
2022-08-23T23:45:41.499Z,21.42
2022-08-23T23:48:09.572Z,18.55
2022-08-23T23:50:45.190Z,16.52
2022-08-23T23:53:14.599Z,20.63
2022-08-23T23:55:42.201Z,17.95
2022-08-23T23:58:09.204Z,18.08
